Time;durP1;ratioP1;P1;durP2;ratioP2;P2;SDS_P1;SDS_P2;PMS_P1;PMS_P2;Temp;Humidity;BMP_temperature;BMP_pressure;BME280_temperature;BME280_humidity;BME280_pressure;Samples;Min_cycle;Max_cycle;Signal;HPM_P1;HPM_P2
2022/11/16 00:01:13;;;;;;;25.30;14.05;;;;;;;10.91;100.00;99792.28;5035147;28;20228;-76
2022/11/16 00:03:39;;;;;;;23.05;13.50;;;;;;;10.92;100.00;99794.00;5029353;28;20332;-76
2022/11/16 00:06:06;;;;;;;24.00;14.15;;;;;;;10.92;100.00;99792.28;5028795;28;20021;-76
2022/11/16 00:08:34;;;;;;;24.45;14.48;;;;;;;10.93;100.00;99790.53;5031738;28;20041;-73
2022/11/16 00:11:28;;;;;;;24.88;15.07;;;;;;;10.93;100.00;99786.22;5033101;28;20237;-72
2022/11/16 00:13:54;;;;;;;24.27;14.13;;;;;;;10.94;100.00;99793.13;5019908;28;20037;-72
2022/11/16 00:16:19;;;;;;;24.33;13.52;;;;;;;10.94;100.00;99798.34;5034206;28;20024;-72
2022/11/16 00:18:44;;;;;;;25.38;13.45;;;;;;;10.96;100.00;99795.75;5025571;28;20202;-72
2022/11/16 00:21:10;;;;;;;22.75;13.50;;;;;;;10.95;100.00;99788.81;5024242;28;20030;-72
2022/11/16 00:23:37;;;;;;;23.30;13.15;;;;;;;10.95;100.00;99794.03;5022668;28;20287;-72
2022/11/16 00:26:07;;;;;;;24.30;13.13;;;;;;;10.95;100.00;99800.09;5025971;28;20021;-72
2022/11/16 00:28:32;;;;;;;24.95;13.52;;;;;;;10.95;100.00;99792.28;5023766;28;20026;-72
2022/11/16 00:30:59;;;;;;;27.58;14.00;;;;;;;10.96;100.00;99796.66;5023417;28;20030;-72
2022/11/16 00:33:25;;;;;;;22.23;12.73;;;;;;;10.98;100.00;99796.66;5023985;28;20256;-72
2022/11/16 00:35:50;;;;;;;27.77;13.93;;;;;;;11.00;100.00;99807.09;5021241;28;20077;-72
2022/11/16 00:38:15;;;;;;;22.33;12.70;;;;;;;11.00;100.00;99789.69;5022707;28;20040;-76
2022/11/16 00:40:40;;;;;;;23.40;13.73;;;;;;;11.00;100.00;99770.59;5021950;28;20041;-75
2022/11/16 00:43:06;;;;;;;23.17;13.18;;;;;;;11.01;100.00;99780.13;5022191;28;20350;-74
2022/11/16 00:45:31;;;;;;;25.00;13.85;;;;;;;10.99;100.00;99769.69;5016220;28;20034;-75
2022/11/16 00:47:56;;;;;;;25.00;13.23;;;;;;;11.01;100.00;99767.09;5031148;28;20045;-75
2022/11/16 00:50:22;;;;;;;22.27;13.02;;;;;;;11.01;100.00;99769.69;5041141;28;20310;-75
2022/11/16 00:52:47;;;;;;;22.50;13.50;;;;;;;11.01;100.00;99761.88;5035640;28;20025;-76
2022/11/16 00:55:12;;;;;;;24.25;14.25;;;;;;;11.01;100.00;99761.88;5030083;28;20036;-76
2022/11/16 00:57:37;;;;;;;23.30;13.98;;;;;;;11.01;100.00;99762.78;5045068;28;20025;-75
2022/11/16 01:00:04;;;;;;;22.77;12.88;;;;;;;11.02;100.00;99774.06;5031699;28;20049;-76
2022/11/16 01:02:29;;;;;;;24.63;12.73;;;;;;;11.02;100.00;99776.66;5005680;28;20254;-76
2022/11/16 01:04:54;;;;;;;21.25;12.30;;;;;;;11.03;100.00;99770.59;5023687;28;20026;-76
2022/11/16 01:07:20;;;;;;;21.98;12.30;;;;;;;11.03;100.00;99775.81;5026973;28;20195;-72
2022/11/16 01:09:45;;;;;;;22.17;12.23;;;;;;;11.02;100.00;99774.94;5025954;28;20026;-72
2022/11/16 01:12:11;;;;;;;20.65;11.88;;;;;;;11.02;100.00;99771.44;5031081;28;20033;-72
2022/11/16 01:14:39;;;;;;;21.33;12.07;;;;;;;11.02;100.00;99768.84;5037735;28;20037;-72
2022/11/16 01:17:05;;;;;;;23.35;12.30;;;;;;;11.03;100.00;99761.03;5029814;28;20033;-72
2022/11/16 01:19:30;;;;;;;20.90;11.57;;;;;;;11.03;100.00;99757.56;5030746;28;20026;-72
2022/11/16 01:21:57;;;;;;;21.98;12.10;;;;;;;11.04;100.00;99754.09;5038699;28;20045;-72
2022/11/16 01:24:23;;;;;;;20.25;11.32;;;;;;;11.05;100.00;99755.81;5032212;28;20063;-72
2022/11/16 01:26:48;;;;;;;20.42;11.68;;;;;;;11.04;100.00;99754.97;5029327;28;20028;-71
2022/11/16 01:29:13;;;;;;;20.58;11.43;;;;;;;11.05;100.00;99753.22;5036975;28;20018;-72
2022/11/16 01:31:39;;;;;;;20.27;11.60;;;;;;;11.06;100.00;99755.81;5042079;28;20029;-72
2022/11/16 01:34:04;;;;;;;20.38;11.25;;;;;;;11.06;100.00;99752.34;5026587;28;20025;-72
2022/11/16 01:36:29;;;;;;;20.88;11.43;;;;;;;11.06;100.00;99744.53;5035220;28;20037;-76
2022/11/16 01:38:55;;;;;;;20.92;12.00;;;;;;;11.06;100.00;99739.31;5031065;28;20026;-76
2022/11/16 01:41:23;;;;;;;21.23;12.40;;;;;;;11.05;100.00;99748.91;5030597;28;20311;-76
2022/11/16 01:43:57;;;;;;;23.65;13.13;;;;;;;11.06;100.00;99739.31;5034241;28;20048;-76
2022/11/16 01:46:24;;;;;;;20.50;12.23;;;;;;;11.07;100.00;99743.69;5026496;28;20145;-74
2022/11/16 01:49:03;;;;;;;23.15;12.65;;;;;;;11.07;100.00;99741.06;5037736;28;20025;-75
2022/11/16 01:51:29;;;;;;;;;;;;;;;11.10;100.00;99741.94;5034824;28;20064;-75
2022/11/16 01:53:55;;;;;;;23.05;13.25;;;;;;;11.09;100.00;99749.75;5036071;28;20132;-76
2022/11/16 01:56:24;;;;;;;23.95;13.10;;;;;;;11.08;100.00;99743.69;5030102;28;20029;-75
2022/11/16 01:58:50;;;;;;;22.83;12.85;;;;;;;11.07;100.00;99739.34;5036507;28;20072;-75
2022/11/16 02:01:15;;;;;;;24.27;13.68;;;;;;;11.07;100.00;99741.06;5008497;28;20021;-75
2022/11/16 02:03:40;;;;;;;23.98;13.25;;;;;;;11.07;100.00;99741.06;5026010;28;20214;-76
2022/11/16 02:06:23;;;;;;;23.75;13.20;;;;;;;11.08;100.00;99741.09;5028799;28;20032;-75
2022/11/16 02:12:32;;;;;;;25.98;12.65;;;;;;;11.12;100.00;99728.91;5022832;28;20020;-75
2022/11/16 02:15:19;;;;;;;23.73;12.52;;;;;;;11.12;100.00;99734.13;5036306;28;20087;-76
2022/11/16 02:18:14;;;;;;;21.20;11.50;;;;;;;11.13;100.00;99730.66;5023947;28;20026;-76
2022/11/16 02:20:53;;;;;;;23.35;12.13;;;;;;;11.14;100.00;99728.06;5020553;28;20048;-76
2022/11/16 02:23:49;;;;;;;20.45;11.93;;;;;;;11.16;100.00;99735.03;5021180;28;20025;-76
2022/11/16 02:26:52;;;;;;;21.77;11.88;;;;;;;11.16;100.00;99728.06;5022581;28;20045;-75
2022/11/16 02:29:22;;;;;;;21.80;11.77;;;;;;;11.17;100.00;99727.19;5020123;28;20260;-76
2022/11/16 02:32:14;;;;;;;19.55;11.43;;;;;;;11.19;100.00;99729.81;5025356;28;20033;-76
2022/11/16 02:34:44;;;;;;;20.02;11.27;;;;;;;11.19;100.00;99719.38;5013422;28;20040;-76
2022/11/16 02:37:13;;;;;;;22.25;12.13;;;;;;;11.19;100.00;99720.25;5022996;28;20373;-76
2022/11/16 02:39:41;;;;;;;25.75;12.35;;;;;;;11.18;100.00;99728.06;5004104;28;20018;-76
2022/11/16 02:42:13;;;;;;;19.08;11.13;;;;;;;11.18;100.00;99734.16;5022549;28;20661;-77
2022/11/16 02:44:43;;;;;;;19.80;11.02;;;;;;;11.18;100.00;99744.59;5020005;28;20049;-76
2022/11/16 02:47:15;;;;;;;18.70;10.63;;;;;;;11.15;100.00;99741.94;5024455;28;20022;-77
2022/11/16 02:49:46;;;;;;;16.42;9.57;;;;;;;11.16;100.00;99737.63;5025658;28;20310;-77
2022/11/16 02:52:14;;;;;;;16.40;9.90;;;;;;;11.16;100.00;99748.06;5024295;28;20053;-76
2022/11/16 02:54:39;;;;;;;18.35;10.10;;;;;;;11.18;100.00;99748.91;5021869;28;20022;-76
2022/11/16 02:57:04;;;;;;;17.23;9.93;;;;;;;11.19;100.00;99750.66;5031319;28;20032;-76
2022/11/16 02:59:40;;;;;;;17.80;10.50;;;;;;;11.20;100.00;99766.31;5036401;28;20040;-76
2022/11/16 03:02:43;;;;;;;20.08;9.73;;;;;;;11.18;100.00;99757.63;5008954;28;20493;-76
2022/11/16 03:05:20;;;;;;;14.05;9.48;;;;;;;11.18;100.00;99747.19;5029731;28;20014;-77
2022/11/16 03:08:05;;;;;;;14.85;9.15;;;;;;;11.16;100.00;99743.72;5035088;28;20021;-77
2022/11/16 03:13:20;;;;;;;14.68;8.95;;;;;;;11.16;100.00;99737.63;5035572;28;20025;-77
2022/11/16 03:15:47;;;;;;;14.77;8.45;;;;;;;11.15;100.00;99736.75;5031191;28;20169;-77
2022/11/16 03:18:15;;;;;;;15.38;8.60;;;;;;;11.14;100.00;99748.06;5022943;28;20280;-77
2022/11/16 03:20:42;;;;;;;13.90;8.05;;;;;;;11.12;100.00;99744.56;5030128;28;20038;-77
2022/11/16 03:23:11;;;;;;;13.13;7.90;;;;;;;11.10;100.00;99746.28;5042141;28;20101;-77
2022/11/16 03:25:47;;;;;;;11.23;7.10;;;;;;;11.09;100.00;99752.38;5034710;28;20041;-76
2022/11/16 03:28:28;;;;;;;12.02;7.38;;;;;;;11.08;100.00;99750.63;5027352;28;20009;-77
2022/11/16 03:30:59;;;;;;;13.48;7.32;;;;;;;11.05;100.00;99748.00;5043417;28;20021;-77
2022/11/16 03:33:30;;;;;;;12.23;7.32;;;;;;;11.02;100.00;99753.22;5039019;28;20116;-77
2022/11/16 03:36:03;;;;;;;10.70;6.60;;;;;;;10.99;100.00;99764.47;5035495;28;20090;-77
2022/11/16 03:38:32;;;;;;;11.38;6.32;;;;;;;10.94;100.00;99759.25;5035662;28;20103;-72
2022/11/16 03:41:01;;;;;;;11.43;6.20;;;;;;;10.92;100.00;99767.94;5028703;28;20187;-72
2022/11/16 03:43:27;;;;;;;10.82;5.13;;;;;;;10.88;100.00;99767.06;5040878;28;20045;-72
2022/11/16 03:45:53;;;;;;;8.45;4.25;;;;;;;10.82;100.00;99764.44;5037475;28;20051;-73
2022/11/16 03:48:18;;;;;;;7.57;3.90;;;;;;;10.78;100.00;99762.66;5042095;28;20180;-72
2022/11/16 03:50:44;;;;;;;6.38;3.53;;;;;;;10.73;100.00;99769.56;5040676;28;20260;-72
2022/11/16 03:53:10;;;;;;;6.43;3.53;;;;;;;10.69;100.00;99778.22;5045315;28;20033;-72
2022/11/16 03:55:35;;;;;;;10.20;3.42;;;;;;;10.65;100.00;99779.09;5040293;28;20013;-72
2022/11/16 03:58:01;;;;;;;6.13;3.40;;;;;;;10.63;100.00;99778.19;5041601;28;20029;-72
2022/11/16 04:00:26;;;;;;;6.47;3.50;;;;;;;10.60;100.00;99785.16;5038970;28;20037;-72
2022/11/16 04:02:51;;;;;;;6.68;3.72;;;;;;;10.58;100.00;99786.00;5028611;28;20037;-72
2022/11/16 04:24:42;;;;;;;8.70;4.10;;;;;;;10.42;100.00;99793.69;5033163;28;20295;-76
2022/11/16 04:29:57;;;;;;;9.48;4.13;;;;;;;10.41;100.00;99797.19;5038910;28;20329;-77
2022/11/16 04:37:53;;;;;;;9.43;3.88;;;;;;;10.36;100.00;99791.03;5021477;28;20036;-77
2022/11/16 04:40:29;;;;;;;8.55;4.10;;;;;;;10.35;100.00;99798.84;5020730;28;20030;-77
2022/11/16 04:42:57;;;;;;;8.63;3.90;;;;;;;10.31;100.00;99797.03;5024422;28;20038;-77
2022/11/16 04:48:07;;;;;;;7.60;3.92;;;;;;;10.27;100.00;99803.97;5023298;28;20071;-77
2022/11/16 04:50:33;;;;;;;9.13;4.10;;;;;;;10.26;100.00;99813.50;5023387;28;20041;-77
2022/11/16 04:52:59;;;;;;;8.98;4.00;;;;;;;10.24;100.00;99814.38;5013477;28;20133;-76
2022/11/16 04:55:24;;;;;;;8.48;3.95;;;;;;;10.21;100.00;99822.13;5023209;28;20017;-77
2022/11/16 04:57:50;;;;;;;9.88;4.30;;;;;;;10.18;100.00;99830.81;5026890;28;20292;-76
2022/11/16 05:00:15;;;;;;;8.57;4.03;;;;;;;10.17;100.00;99836.88;5020856;28;20025;-76
2022/11/16 05:02:41;;;;;;;10.73;4.70;;;;;;;10.15;100.00;99833.34;5023926;28;20013;-77
2022/11/16 05:05:07;;;;;;;10.82;4.63;;;;;;;10.14;100.00;99833.34;5004038;28;20235;-77
2022/11/16 05:07:32;;;;;;;9.30;4.90;;;;;;;10.13;100.00;99829.03;5034234;28;20280;-77
2022/11/16 05:09:57;;;;;;;8.10;4.45;;;;;;;10.10;100.00;99828.13;5039978;28;20260;-77
2022/11/16 05:12:25;;;;;;;9.05;4.55;;;;;;;10.08;100.00;99827.25;5026713;28;20231;-76
2022/11/16 05:14:50;;;;;;;9.23;4.53;;;;;;;10.07;100.00;99829.84;5036802;28;20021;-77
2022/11/16 05:17:17;;;;;;;10.10;4.82;;;;;;;10.06;100.00;99825.47;5027717;28;20232;-77
2022/11/16 05:22:26;;;;;;;12.43;4.63;;;;;;;10.03;100.00;99839.31;5036927;28;20060;-77
2022/11/16 05:24:53;;;;;;;10.30;4.82;;;;;;;10.00;100.00;99841.03;5030644;28;20202;-77
2022/11/16 05:27:20;;;;;;;10.13;4.32;;;;;;;9.98;100.00;99840.13;5026947;28;20065;-77
2022/11/16 05:29:50;;;;;;;9.75;4.63;;;;;;;9.96;100.00;99831.47;5036562;28;20021;-77
2022/11/16 05:32:18;;;;;;;10.07;4.82;;;;;;;9.95;100.00;99833.19;5031761;28;20029;-77
2022/11/16 05:34:44;;;;;;;9.38;4.28;;;;;;;9.92;100.00;99836.63;5032802;28;20018;-77
2022/11/16 05:37:11;;;;;;;12.25;4.68;;;;;;;9.93;100.00;99824.47;5034847;28;20153;-71
2022/11/16 05:39:37;;;;;;;11.80;4.53;;;;;;;9.88;100.00;99819.25;5037081;28;20033;-71
2022/11/16 05:42:03;;;;;;;7.68;4.28;;;;;;;9.87;100.00;99830.50;5036011;28;20041;-71
2022/11/16 05:44:30;;;;;;;11.68;5.53;;;;;;;9.88;100.00;99823.59;5029098;28;20084;-71
2022/11/16 05:46:55;;;;;;;10.60;4.32;;;;;;;9.86;100.00;99827.88;5014386;28;20037;-71
2022/11/16 05:49:20;;;;;;;10.10;4.72;;;;;;;9.81;100.00;99827.84;5038390;28;20222;-71
2022/11/16 05:51:46;;;;;;;9.45;4.00;;;;;;;9.78;100.00;99829.56;5031977;28;20021;-71
2022/11/16 05:54:14;;;;;;;8.77;4.35;;;;;;;9.68;99.61;99834.63;5034010;28;20135;-71
2022/11/16 05:56:40;;;;;;;11.20;4.90;;;;;;;9.62;100.00;99837.19;5031991;28;20017;-71
2022/11/16 05:59:05;;;;;;;11.43;5.13;;;;;;;9.57;100.00;99837.13;5016614;28;20028;-71
2022/11/16 06:01:34;;;;;;;10.27;4.85;;;;;;;9.51;100.00;99834.44;5029240;28;20021;-71
2022/11/16 06:04:00;;;;;;;9.73;5.00;;;;;;;9.48;100.00;99843.94;5028746;28;21172;-71
2022/11/16 06:06:27;;;;;;;12.73;5.25;;;;;;;9.43;100.00;99843.91;5024950;28;20260;-77
2022/11/16 06:08:53;;;;;;;12.63;5.47;;;;;;;9.38;100.00;99845.56;5027089;28;20276;-77
2022/11/16 06:11:19;;;;;;;11.73;5.70;;;;;;;9.34;100.00;99847.28;5030489;28;20026;-77
2022/11/16 06:13:44;;;;;;;14.48;5.03;;;;;;;9.32;100.00;99858.50;5027111;28;20026;-78
2022/11/16 06:16:09;;;;;;;11.32;5.20;;;;;;;9.27;100.00;99847.16;5032392;28;20017;-77
2022/11/16 06:18:39;;;;;;;11.32;5.35;;;;;;;9.25;100.00;99856.66;5025936;28;20021;-78
2022/11/16 06:21:06;;;;;;;12.85;5.22;;;;;;;9.22;100.00;99854.91;5021516;28;20295;-77
2022/11/16 06:23:31;;;;;;;11.25;5.72;;;;;;;9.18;100.00;99860.91;5028707;28;20017;-77
2022/11/16 06:25:57;;;;;;;14.15;7.00;;;;;;;9.15;100.00;99853.97;5027468;28;20024;-76
2022/11/16 06:28:22;;;;;;;10.70;5.53;;;;;;;9.11;100.00;99865.16;5024719;28;20025;-76
2022/11/16 06:30:48;;;;;;;11.43;5.43;;;;;;;9.09;100.00;99872.03;5006978;28;20018;-77
2022/11/16 06:33:14;;;;;;;14.55;5.68;;;;;;;9.04;100.00;99874.59;5021809;28;20037;-77
2022/11/16 06:35:39;;;;;;;12.73;5.78;;;;;;;9.02;100.00;99875.41;5024794;28;20107;-77
2022/11/16 06:38:04;;;;;;;13.52;5.35;;;;;;;8.99;100.00;99878.88;5022008;28;20022;-77
2022/11/16 06:40:31;;;;;;;13.75;5.63;;;;;;;8.98;100.00;99876.22;5020628;28;20176;-76
2022/11/16 06:42:56;;;;;;;11.32;5.43;;;;;;;8.97;100.00;99877.94;5020197;28;20056;-77
2022/11/16 06:45:22;;;;;;;10.68;4.95;;;;;;;8.95;100.00;99881.38;5007906;28;20014;-77
2022/11/16 06:47:47;;;;;;;11.02;5.28;;;;;;;8.92;100.00;99876.13;5036831;28;20263;-77
2022/11/16 06:50:13;;;;;;;14.23;5.50;;;;;;;8.88;100.00;99881.28;5032896;28;20026;-76
2022/11/16 06:52:38;;;;;;;12.13;4.85;;;;;;;8.85;100.00;99886.44;5036258;28;20021;-77
2022/11/16 06:55:04;;;;;;;10.45;4.45;;;;;;;8.83;100.00;99888.13;5039205;28;20107;-77
2022/11/16 06:57:29;;;;;;;10.82;5.22;;;;;;;8.80;100.00;99898.47;5035303;28;20105;-77
2022/11/16 06:59:54;;;;;;;12.73;4.82;;;;;;;8.79;100.00;99899.34;5023800;28;20040;-77
2022/11/16 07:02:21;;;;;;;10.60;4.90;;;;;;;8.78;100.00;99909.72;5035007;28;20227;-78
2022/11/16 07:04:47;;;;;;;12.60;4.82;;;;;;;8.76;100.00;99901.91;5022205;28;20022;-79
2022/11/16 07:07:14;;;;;;;14.75;5.60;;;;;;;8.75;100.00;99901.84;5037305;28;20045;-78
2022/11/16 07:09:39;;;;;;;10.90;5.13;;;;;;;8.75;100.00;99902.75;5023504;28;20030;-78
2022/11/16 07:12:05;;;;;;;14.35;5.40;;;;;;;8.75;100.00;99900.13;5030579;28;20017;-77
2022/11/16 07:14:30;;;;;;;12.10;5.45;;;;;;;8.72;100.00;99902.69;5030127;28;20017;-77
2022/11/16 07:16:55;;;;;;;12.48;5.50;;;;;;;8.70;100.00;99910.47;5031298;28;20022;-77
2022/11/16 07:19:20;;;;;;;13.20;5.32;;;;;;;8.70;100.00;99901.78;5036820;28;20039;-77
2022/11/16 07:21:46;;;;;;;12.68;5.82;;;;;;;8.68;100.00;99904.34;5040567;28;20033;-77
2022/11/16 07:24:11;;;;;;;13.18;5.93;;;;;;;8.66;100.00;99910.38;5026342;28;20036;-77
2022/11/16 07:26:36;;;;;;;18.20;7.00;;;;;;;8.63;100.00;99908.63;5028776;28;20089;-77
2022/11/16 07:29:02;;;;;;;15.93;6.90;;;;;;;8.61;100.00;99915.47;5028820;28;20034;-77
2022/11/16 07:31:27;;;;;;;18.40;6.60;;;;;;;8.60;100.00;99918.91;5012911;28;20022;-77
2022/11/16 07:33:52;;;;;;;17.10;7.43;;;;;;;8.60;100.00;99910.28;5033359;28;20283;-77
2022/11/16 07:36:18;;;;;;;15.40;7.20;;;;;;;8.61;100.00;99919.81;5026832;28;20021;-77
2022/11/16 07:38:44;;;;;;;18.77;7.45;;;;;;;8.61;100.00;99938.00;5031846;28;20055;-77
2022/11/16 07:41:15;;;;;;;16.40;7.15;;;;;;;8.60;100.00;99944.88;5024174;28;20176;-77
2022/11/16 07:43:41;;;;;;;16.30;6.97;;;;;;;8.61;100.00;99948.38;5025020;28;20037;-78
2022/11/16 07:46:10;;;;;;;18.27;7.25;;;;;;;8.60;100.00;99944.03;5029507;28;20296;-77
2022/11/16 07:48:35;;;;;;;;;;;;;;;8.65;100.00;99939.81;5030703;28;20342;-76
2022/11/16 07:51:03;;;;;;;16.10;6.80;;;;;;;8.63;100.00;99941.47;5025504;28;19924;-77
2022/11/16 07:53:29;;;;;;;14.82;6.68;;;;;;;8.62;100.00;99950.13;5028314;28;20026;-77
2022/11/16 07:55:55;;;;;;;18.58;6.50;;;;;;;8.63;100.00;99947.56;5035217;28;20051;-77
2022/11/16 07:58:20;;;;;;;16.25;6.32;;;;;;;8.65;100.00;99950.19;5027341;28;20026;-77
2022/11/16 08:00:46;;;;;;;17.00;6.03;;;;;;;8.67;100.00;99949.34;5009193;28;20048;-77
2022/11/16 08:03:11;;;;;;;15.90;6.13;;;;;;;8.68;100.00;99939.84;5025697;28;20093;-77
2022/11/16 08:05:36;;;;;;;16.63;6.43;;;;;;;8.69;100.00;99952.84;5025019;28;20030;-76
2022/11/16 08:08:02;;;;;;;19.35;5.95;;;;;;;8.70;100.00;99949.41;5025842;28;20045;-77
2022/11/16 08:10:28;;;;;;;13.73;5.72;;;;;;;8.72;100.00;99952.03;5038976;28;20025;-78
2022/11/16 08:12:54;;;;;;;15.73;6.13;;;;;;;8.73;100.00;99951.16;5014578;28;20018;-77
2022/11/16 08:15:19;;;;;;;17.05;5.35;;;;;;;8.75;100.00;99946.88;5036854;28;20066;-78
2022/11/16 08:17:45;;;;;;;12.80;4.45;;;;;;;8.78;100.00;99948.66;5028676;28;20033;-75
2022/11/16 08:20:10;;;;;;;16.30;4.88;;;;;;;8.79;100.00;99953.88;5033414;28;20315;-76
2022/11/16 08:22:36;;;;;;;12.85;5.00;;;;;;;8.82;100.00;99958.22;5017644;28;20167;-76
2022/11/16 08:25:01;;;;;;;11.57;4.30;;;;;;;8.81;100.00;99957.38;5025673;28;20014;-72
2022/11/16 08:27:27;;;;;;;14.45;4.65;;;;;;;8.83;100.00;99958.25;5034511;28;20092;-71
2022/11/16 08:29:52;;;;;;;13.77;4.80;;;;;;;8.85;100.00;99959.19;5032602;28;20017;-71
2022/11/16 08:32:18;;;;;;;12.50;4.65;;;;;;;8.86;100.00;99958.34;5033853;28;20018;-72
2022/11/16 08:34:43;;;;;;;13.05;4.32;;;;;;;8.88;100.00;99953.16;5028670;28;20080;-71
2022/11/16 08:37:08;;;;;;;9.90;4.00;;;;;;;8.90;100.00;99959.25;5031690;28;20030;-73
2022/11/16 08:39:33;;;;;;;14.40;4.88;;;;;;;8.91;100.00;99949.72;5024097;28;20033;-70
2022/11/16 08:41:58;;;;;;;15.18;5.00;;;;;;;8.92;100.00;99956.66;5031001;28;20348;-70
2022/11/16 08:44:24;;;;;;;14.45;4.53;;;;;;;8.91;100.00;99948.00;5033774;28;20047;-70
2022/11/16 08:46:49;;;;;;;16.85;4.40;;;;;;;8.93;100.00;99956.69;5043373;28;20075;-70
2022/11/16 08:49:14;;;;;;;15.05;4.63;;;;;;;8.95;100.00;99956.72;5034999;28;20093;-70
2022/11/16 08:51:40;;;;;;;12.07;4.10;;;;;;;8.96;100.00;99966.25;5032936;28;20022;-70
2022/11/16 08:54:05;;;;;;;14.35;4.32;;;;;;;8.97;100.00;99965.44;5032145;28;20024;-71
2022/11/16 08:56:31;;;;;;;13.40;4.25;;;;;;;8.98;100.00;99965.44;5031342;28;20021;-70
2022/11/16 08:58:57;;;;;;;11.65;4.10;;;;;;;9.00;100.00;99970.66;5033313;28;20018;-70
2022/11/16 09:01:25;;;;;;;13.38;4.30;;;;;;;9.01;100.00;99969.81;5023186;28;20036;-71
2022/11/16 09:03:51;;;;;;;18.50;3.75;;;;;;;9.04;100.00;99980.25;5030015;28;20017;-71
2022/11/16 09:06:16;;;;;;;12.45;3.83;;;;;;;9.06;100.00;99975.94;5041763;28;20060;-71
2022/11/16 09:08:43;;;;;;;11.85;3.65;;;;;;;9.10;100.00;99969.09;5034151;28;20280;-71
2022/11/16 09:11:15;;;;;;;14.18;4.07;;;;;;;9.12;99.88;99977.78;5034040;28;20025;-72
2022/11/16 09:13:42;;;;;;;13.80;3.95;;;;;;;9.14;100.00;99982.16;5041258;28;20064;-71
2022/11/16 09:16:08;;;;;;;12.68;3.53;;;;;;;9.16;99.84;99970.03;5024661;28;20113;-70
2022/11/16 09:18:34;;;;;;;14.55;3.85;;;;;;;9.20;100.00;99977.03;5029604;28;20045;-71
2022/11/16 09:20:59;;;;;;;13.10;3.75;;;;;;;9.21;98.92;99975.28;5036512;28;20029;-73
2022/11/16 09:23:25;;;;;;;11.13;3.40;;;;;;;9.24;99.66;99972.78;5025332;28;20092;-71
2022/11/16 09:25:50;;;;;;;15.10;4.03;;;;;;;9.29;99.68;99972.84;5029780;28;20085;-71
2022/11/16 09:28:17;;;;;;;14.80;3.58;;;;;;;9.31;99.69;99974.63;5033603;28;20026;-71
2022/11/16 09:30:45;;;;;;;12.48;3.42;;;;;;;9.36;99.73;99977.28;5028338;28;20265;-71
2022/11/16 09:33:11;;;;;;;10.00;3.60;;;;;;;9.39;99.36;99979.91;5040927;28;20025;-71
2022/11/16 09:35:36;;;;;;;10.35;3.35;;;;;;;9.43;99.95;99979.13;5036341;28;20021;-71
2022/11/16 09:38:02;;;;;;;12.57;3.88;;;;;;;9.46;99.42;99975.66;5030953;28;20028;-71
2022/11/16 09:40:35;;;;;;;11.82;3.58;;;;;;;9.48;99.24;99982.63;5031101;28;20072;-71
2022/11/16 09:43:31;;;;;;;13.13;3.65;;;;;;;9.52;98.74;99980.97;5033978;28;20155;-71
2022/11/16 09:46:35;;;;;;;12.88;3.58;;;;;;;9.53;98.56;99975.78;5034868;28;20028;-71
2022/11/16 09:49:06;;;;;;;15.05;3.72;;;;;;;9.56;97.82;99982.75;4964131;29;20178;-66
2022/11/16 09:51:33;;;;;;;14.10;3.50;;;;;;;9.56;96.93;99986.22;4959999;29;20037;-66
2022/11/16 09:54:06;;;;;;;10.60;3.33;;;;;;;9.58;97.20;99979.31;5001864;28;20037;-66
2022/11/16 09:56:36;;;;;;;12.88;3.72;;;;;;;9.60;97.22;99986.25;5033870;28;20025;-66
2022/11/16 09:59:13;;;;;;;16.88;3.40;;;;;;;9.63;97.74;99994.09;5034441;28;20259;-66
2022/11/16 10:01:45;;;;;;;10.57;3.10;;;;;;;9.67;98.61;99988.09;5039004;28;20029;-66
2022/11/16 10:04:17;;;;;;;10.15;3.10;;;;;;;9.71;97.94;99974.28;5030689;28;20025;-66
2022/11/16 10:07:10;;;;;;;10.43;3.70;;;;;;;9.72;96.38;99982.09;5039080;28;20036;-66
2022/11/16 10:09:35;;;;;;;12.27;3.60;;;;;;;9.75;96.05;99994.28;5038287;28;20033;-66
2022/11/16 10:12:30;;;;;;;9.05;3.00;;;;;;;9.79;96.26;99985.66;5041669;28;20031;-66
2022/11/16 10:15:06;;;;;;;12.57;3.42;;;;;;;9.85;96.36;99990.06;5030979;28;20049;-66
2022/11/16 10:18:05;;;;;;;9.70;3.00;;;;;;;9.89;95.27;99995.34;5042281;28;20088;-71
2022/11/16 10:20:39;;;;;;;10.27;3.10;;;;;;;9.94;94.75;99991.91;5030038;28;20056;-71
2022/11/16 10:23:26;;;;;;;11.52;2.70;;;;;;;9.98;94.72;99991.06;5022706;28;20037;-75
2022/11/16 10:25:56;;;;;;;10.80;2.92;;;;;;;10.01;94.71;99984.19;5033734;28;20330;-76
2022/11/16 10:28:45;;;;;;;8.20;2.83;;;;;;;10.07;93.94;99981.66;5030592;28;20025;-76
2022/11/16 10:31:47;;;;;;;12.82;3.10;;;;;;;10.13;93.60;99978.25;5028043;28;20033;-76
2022/11/16 10:34:21;;;;;;;7.78;2.53;;;;;;;10.17;91.77;99973.97;5028721;28;20017;-75
2022/11/16 10:36:46;;;;;;;10.60;2.78;;;;;;;10.20;93.58;99969.66;5038367;28;20076;-76
2022/11/16 10:39:13;;;;;;;10.18;2.50;;;;;;;10.24;92.23;99981.84;5038338;28;20154;-76
2022/11/16 10:41:46;;;;;;;8.45;2.55;;;;;;;10.27;90.87;99971.47;5030412;28;20038;-75
2022/11/16 10:44:20;;;;;;;10.73;2.70;;;;;;;10.33;91.13;99977.63;5025523;28;20022;-76
2022/11/16 10:47:00;;;;;;;9.00;2.67;;;;;;;10.39;91.89;99975.09;5043156;28;20025;-76
2022/11/16 10:49:39;;;;;;;10.50;2.67;;;;;;;10.42;90.55;99978.59;5040078;28;20021;-75
2022/11/16 10:52:04;;;;;;;11.85;2.70;;;;;;;10.44;90.11;99973.41;5039598;28;20021;-75
2022/11/16 10:54:30;;;;;;;8.95;2.42;;;;;;;10.48;90.71;99974.31;5040627;28;20059;-76
2022/11/16 10:57:04;;;;;;;10.55;2.42;;;;;;;10.51;90.20;99977.81;5038382;28;20040;-76
2022/11/16 10:59:38;;;;;;;7.70;2.30;;;;;;;10.55;90.25;99982.19;5032926;28;20097;-75
2022/11/16 11:02:33;;;;;;;9.02;2.60;;;;;;;10.57;89.96;99979.59;5035870;28;20092;-76
2022/11/16 11:05:15;;;;;;;9.43;2.30;;;;;;;10.59;89.26;99986.56;5039423;28;20024;-76
2022/11/16 11:07:48;;;;;;;10.18;2.42;;;;;;;10.58;87.70;99987.44;5017879;28;20032;-76
2022/11/16 11:10:33;;;;;;;9.52;2.35;;;;;;;10.60;88.05;99980.53;5037914;28;20022;-76
2022/11/16 11:13:10;;;;;;;11.93;2.70;;;;;;;10.64;89.25;99970.97;5038415;28;20276;-76
2022/11/16 11:15:41;;;;;;;9.88;2.55;;;;;;;10.71;89.03;99971.94;5035049;28;20024;-76
2022/11/16 11:18:24;;;;;;;8.25;2.33;;;;;;;10.79;89.45;99968.53;5021851;28;20017;-75
2022/11/16 11:21:03;;;;;;;8.07;2.10;;;;;;;10.83;85.78;99964.19;5041545;28;20067;-76
2022/11/16 11:23:28;;;;;;;10.57;2.70;;;;;;;10.83;85.01;99969.41;5042240;28;20026;-76
2022/11/16 11:25:59;;;;;;;6.75;2.00;;;;;;;10.79;84.67;99970.28;5024287;28;20018;-76
2022/11/16 11:28:27;;;;;;;8.48;1.90;;;;;;;10.76;85.05;99965.91;5042849;28;20264;-76
2022/11/16 11:31:00;;;;;;;7.05;1.90;;;;;;;10.73;85.36;99965.88;5021716;28;20083;-76
2022/11/16 11:33:29;;;;;;;10.10;1.98;;;;;;;10.69;86.00;99968.41;5043384;28;20085;-76
2022/11/16 11:35:57;;;;;;;;;;;;;;;10.71;87.67;99954.53;5033517;28;20021;-76
2022/11/16 11:38:22;;;;;;;8.13;1.90;;;;;;;10.67;86.61;99951.91;5043356;28;20051;-76
2022/11/16 11:40:56;;;;;;;6.75;2.00;;;;;;;10.67;86.71;99951.91;5043513;28;20268;-76
2022/11/16 11:43:23;;;;;;;12.07;2.50;;;;;;;10.65;86.62;99954.50;5043296;28;20045;-73
2022/11/16 11:46:05;;;;;;;11.10;3.05;;;;;;;10.66;87.18;99947.56;5029469;28;20024;-75
2022/11/16 11:48:46;;;;;;;9.18;2.28;;;;;;;10.65;86.09;99953.66;5044497;28;20013;-74
2022/11/16 11:51:26;;;;;;;8.18;2.10;;;;;;;10.64;86.30;99955.34;5044442;28;20033;-75
2022/11/16 11:53:59;;;;;;;7.63;2.00;;;;;;;10.63;85.55;99945.81;5045945;28;20064;-75
2022/11/16 11:56:27;;;;;;;8.43;2.40;;;;;;;10.61;86.23;99934.50;5034004;28;20006;-73
2022/11/16 11:58:53;;;;;;;8.82;2.60;;;;;;;10.63;87.53;99927.59;5039305;28;20025;-74
2022/11/16 12:01:43;;;;;;;7.82;2.28;;;;;;;10.68;88.19;99922.41;5022312;28;20357;-74
2022/11/16 12:04:39;;;;;;;6.25;2.08;;;;;;;10.80;86.36;99922.47;5031007;28;20030;-74
2022/11/16 12:07:33;;;;;;;9.15;2.45;;;;;;;10.84;85.65;99921.66;5034939;28;20032;-75
2022/11/16 12:10:17;;;;;;;10.98;2.65;;;;;;;10.88;86.24;99923.44;5029818;28;20145;-74
2022/11/16 12:13:04;;;;;;;7.50;2.35;;;;;;;10.94;87.24;99918.25;5031973;28;20033;-74
2022/11/16 12:15:46;;;;;;;6.20;2.20;;;;;;;11.01;87.21;99919.19;5039888;28;20228;-74